createdAt,value
2023-05-18T00:03:48.448Z,1.60
2023-05-18T00:13:51.170Z,1.33
2023-05-18T00:23:55.746Z,1.92
2023-05-18T00:33:58.730Z,1.60
2023-05-18T00:44:04.543Z,1.17
2023-05-18T00:54:07.842Z,1.42
2023-05-18T01:04:14.372Z,1.75
2023-05-18T01:14:21.177Z,1.85
2023-05-18T01:24:36.514Z,1.40
2023-05-18T01:34:40.541Z,1.30
2023-05-18T01:44:48.844Z,1.30
2023-05-18T01:54:55.851Z,1.10
2023-05-18T02:04:58.456Z,1.42
2023-05-18T02:15:05.501Z,1.88
2023-05-18T02:25:08.724Z,1.42
2023-05-18T02:35:12.865Z,1.30
2023-05-18T02:45:15.555Z,1.52
2023-05-18T02:55:19.909Z,1.48
2023-05-18T03:05:23.729Z,1.25
2023-05-18T03:15:31.468Z,1.27
2023-05-18T03:25:37.155Z,1.63
2023-05-18T03:35:41.692Z,1.48
2023-05-18T03:45:44.356Z,1.45
2023-05-18T03:55:50.179Z,1.52
2023-05-18T04:05:53.309Z,1.55
2023-05-18T04:15:58.397Z,1.70
2023-05-18T04:26:01.347Z,1.33
2023-05-18T04:36:06.374Z,1.55
2023-05-18T04:46:09.056Z,1.80
2023-05-18T04:56:13.787Z,1.20
2023-05-18T05:06:16.805Z,1.75
2023-05-18T05:16:20.801Z,1.67
2023-05-18T05:26:23.544Z,1.80
2023-05-18T05:36:27.680Z,1.55
2023-05-18T05:46:30.443Z,2.75
2023-05-18T05:56:34.484Z,1.70
2023-05-18T06:06:37.993Z,1.50
2023-05-18T06:16:41.994Z,1.50
2023-05-18T06:26:45.125Z,1.27
2023-05-18T06:36:49.110Z,1.60
2023-05-18T06:46:51.821Z,2.35
2023-05-18T06:56:55.839Z,1.50
2023-05-18T07:06:58.766Z,2.10
2023-05-18T07:17:03.928Z,1.92
2023-05-18T07:27:06.963Z,1.55
2023-05-18T07:37:10.960Z,1.85
2023-05-18T07:47:13.736Z,1.75
2023-05-18T07:57:17.776Z,1.60
2023-05-18T08:07:21.472Z,1.70
2023-05-18T08:17:26.037Z,2.00
2023-05-18T08:27:29.587Z,1.60
2023-05-18T08:37:33.782Z,1.50
2023-05-18T08:47:38.442Z,1.73
2023-05-18T08:57:44.439Z,1.30
2023-05-18T09:07:48.145Z,1.50
2023-05-18T09:17:52.218Z,1.60
2023-05-18T09:27:55.766Z,1.88
2023-05-18T09:38:04.565Z,1.65
2023-05-18T09:48:08.528Z,1.52
2023-05-18T09:58:12.656Z,1.80
2023-05-18T10:08:15.919Z,1.92
2023-05-18T10:18:23.841Z,1.45
2023-05-18T10:28:28.722Z,1.60
2023-05-18T10:38:34.086Z,1.60
2023-05-18T10:48:47.497Z,1.80
2023-05-18T10:58:52.473Z,1.92
2023-05-18T11:08:55.195Z,1.70
2023-05-18T11:19:06.911Z,1.60
2023-05-18T11:29:18.349Z,1.98
2023-05-18T11:39:25.980Z,1.60
2023-05-18T11:49:30.443Z,1.43
2023-05-18T11:59:37.698Z,1.45
2023-05-18T12:09:44.839Z,1.67
2023-05-18T12:19:50.185Z,1.37
2023-05-18T12:29:52.934Z,1.58
2023-05-18T12:39:57.157Z,1.75
2023-05-18T12:50:03.341Z,1.73
2023-05-18T13:10:16.391Z,1.40
2023-05-18T13:20:20.578Z,1.60
2023-05-18T13:30:24.163Z,2.03
2023-05-18T13:40:28.438Z,1.45
2023-05-18T13:50:31.291Z,1.67
2023-05-18T14:00:36.485Z,1.52
2023-05-18T14:10:39.279Z,2.00
2023-05-18T14:20:43.444Z,1.50
2023-05-18T14:30:46.157Z,1.52
2023-05-18T14:40:50.389Z,1.98
2023-05-18T14:50:53.069Z,1.63
2023-05-18T15:00:57.162Z,1.88
2023-05-18T15:11:00.310Z,1.60
2023-05-18T15:21:04.454Z,1.70
2023-05-18T15:31:07.147Z,1.80
2023-05-18T15:41:11.161Z,1.35
2023-05-18T15:51:14.190Z,1.77
2023-05-18T16:01:18.378Z,1.77
2023-05-18T16:21:40.115Z,2.35
2023-05-18T16:31:43.019Z,1.77
2023-05-18T16:41:47.221Z,1.75
2023-05-18T16:51:50.070Z,2.10
2023-05-18T17:01:54.249Z,2.55
2023-05-18T17:11:56.909Z,1.80
2023-05-18T17:22:00.946Z,2.30
2023-05-18T17:32:03.748Z,2.15
2023-05-18T17:42:08.010Z,2.20
2023-05-18T17:52:11.130Z,2.38
2023-05-18T18:02:15.340Z,1.52
2023-05-18T18:12:18.071Z,2.25
2023-05-18T18:22:22.302Z,1.70
2023-05-18T18:32:24.933Z,1.77
2023-05-18T18:42:29.082Z,1.90
2023-05-18T18:52:31.966Z,2.50
2023-05-18T19:02:37.499Z,2.15
2023-05-18T19:12:40.402Z,1.95
2023-05-18T19:22:44.389Z,1.90
2023-05-18T19:32:47.123Z,1.98
2023-05-18T19:42:51.157Z,2.00
2023-05-18T19:52:54.001Z,1.65
2023-05-18T20:02:58.076Z,2.25
2023-05-18T20:13:01.424Z,2.08
2023-05-18T20:23:06.716Z,2.08
2023-05-18T20:33:09.997Z,2.53
2023-05-18T20:43:17.991Z,3.10
2023-05-18T20:53:21.372Z,2.88
2023-05-18T21:03:25.541Z,2.50
2023-05-18T21:13:28.502Z,2.55
2023-05-18T21:23:32.633Z,2.35
2023-05-18T21:33:35.315Z,2.28
2023-05-18T21:43:39.448Z,2.83
2023-05-18T21:53:42.146Z,2.83
2023-05-18T22:03:46.299Z,3.45
2023-05-18T22:13:49.079Z,3.60
2023-05-18T22:23:53.416Z,2.63
2023-05-18T22:33:56.332Z,2.85
2023-05-18T22:44:00.837Z,2.75
2023-05-18T22:54:03.514Z,2.30
2023-05-18T23:04:07.742Z,3.33
2023-05-18T23:14:11.201Z,2.63
2023-05-18T23:24:16.070Z,2.97
2023-05-18T23:34:19.354Z,3.78
2023-05-18T23:44:24.130Z,2.83
2023-05-18T23:54:27.392Z,2.30
